sensor_id;sensor_type;location;lat;lon;timestamp;P1;durP1;ratioP1;P2;durP2;ratioP2
10074;SDS011;5076;42.680;23.288;2022-12-10T00:00:41;9.80;;;5.90;;
10074;SDS011;5076;42.680;23.288;2022-12-10T00:03:08;13.37;;;8.47;;
10074;SDS011;5076;42.680;23.288;2022-12-10T00:05:36;14.13;;;8.23;;
10074;SDS011;5076;42.680;23.288;2022-12-10T00:08:03;10.67;;;6.33;;
10074;SDS011;5076;42.680;23.288;2022-12-10T00:10:30;13.03;;;7.57;;
10074;SDS011;5076;42.680;23.288;2022-12-10T00:12:58;10.30;;;6.80;;
10074;SDS011;5076;42.680;23.288;2022-12-10T00:15:25;12.33;;;6.83;;
10074;SDS011;5076;42.680;23.288;2022-12-10T00:17:51;10.10;;;6.53;;
10074;SDS011;5076;42.680;23.288;2022-12-10T00:20:18;11.07;;;6.57;;
10074;SDS011;5076;42.680;23.288;2022-12-10T00:22:45;15.77;;;6.67;;
10074;SDS011;5076;42.680;23.288;2022-12-10T00:25:12;10.97;;;6.43;;
10074;SDS011;5076;42.680;23.288;2022-12-10T00:27:39;11.33;;;6.27;;
10074;SDS011;5076;42.680;23.288;2022-12-10T00:30:07;9.47;;;6.17;;
10074;SDS011;5076;42.680;23.288;2022-12-10T00:32:35;11.77;;;6.57;;
10074;SDS011;5076;42.680;23.288;2022-12-10T00:35:02;14.57;;;6.10;;
10074;SDS011;5076;42.680;23.288;2022-12-10T00:37:29;11.33;;;5.90;;
10074;SDS011;5076;42.680;23.288;2022-12-10T00:39:56;16.53;;;7.23;;
10074;SDS011;5076;42.680;23.288;2022-12-10T00:42:22;12.53;;;6.07;;
10074;SDS011;5076;42.680;23.288;2022-12-10T00:44:49;12.07;;;6.13;;
10074;SDS011;5076;42.680;23.288;2022-12-10T00:47:18;12.17;;;5.30;;
10074;SDS011;5076;42.680;23.288;2022-12-10T00:49:44;12.20;;;5.80;;
10074;SDS011;5076;42.680;23.288;2022-12-10T00:52:11;9.47;;;6.00;;
10074;SDS011;5076;42.680;23.288;2022-12-10T00:54:38;9.63;;;5.57;;
10074;SDS011;5076;42.680;23.288;2022-12-10T00:57:05;8.67;;;5.63;;
10074;SDS011;5076;42.680;23.288;2022-12-10T00:59:31;10.30;;;5.63;;
10074;SDS011;5076;42.680;23.288;2022-12-10T01:01:58;8.80;;;5.10;;
10074;SDS011;5076;42.680;23.288;2022-12-10T01:04:26;12.57;;;5.90;;
10074;SDS011;5076;42.680;23.288;2022-12-10T01:06:53;7.73;;;5.23;;
10074;SDS011;5076;42.680;23.288;2022-12-10T01:09:21;13.27;;;6.30;;
10074;SDS011;5076;42.680;23.288;2022-12-10T01:11:50;12.13;;;6.70;;
10074;SDS011;5076;42.680;23.288;2022-12-10T01:14:19;10.63;;;6.40;;
10074;SDS011;5076;42.680;23.288;2022-12-10T01:16:47;11.77;;;7.47;;
10074;SDS011;5076;42.680;23.288;2022-12-10T01:19:14;12.77;;;7.00;;
10074;SDS011;5076;42.680;23.288;2022-12-10T01:21:43;11.73;;;6.87;;
10074;SDS011;5076;42.680;23.288;2022-12-10T01:24:10;14.13;;;7.40;;
10074;SDS011;5076;42.680;23.288;2022-12-10T01:26:36;13.67;;;6.87;;
10074;SDS011;5076;42.680;23.288;2022-12-10T01:29:04;9.53;;;6.80;;
10074;SDS011;5076;42.680;23.288;2022-12-10T01:31:31;11.50;;;7.13;;
10074;SDS011;5076;42.680;23.288;2022-12-10T01:34:00;9.90;;;6.20;;
10074;SDS011;5076;42.680;23.288;2022-12-10T01:36:28;12.00;;;6.70;;
10074;SDS011;5076;42.680;23.288;2022-12-10T01:38:58;14.30;;;7.23;;
10074;SDS011;5076;42.680;23.288;2022-12-10T01:41:27;11.37;;;5.83;;
10074;SDS011;5076;42.680;23.288;2022-12-10T01:43:56;12.50;;;6.57;;
10074;SDS011;5076;42.680;23.288;2022-12-10T01:46:26;12.60;;;6.63;;
10074;SDS011;5076;42.680;23.288;2022-12-10T01:48:54;12.73;;;6.17;;
10074;SDS011;5076;42.680;23.288;2022-12-10T01:51:21;9.63;;;5.70;;
10074;SDS011;5076;42.680;23.288;2022-12-10T01:53:50;9.00;;;5.70;;
10074;SDS011;5076;42.680;23.288;2022-12-10T01:56:19;16.97;;;5.57;;
10074;SDS011;5076;42.680;23.288;2022-12-10T01:58:47;8.40;;;5.53;;
10074;SDS011;5076;42.680;23.288;2022-12-10T02:01:16;8.23;;;4.57;;
10074;SDS011;5076;42.680;23.288;2022-12-10T02:03:52;12.30;;;4.33;;
10074;SDS011;5076;42.680;23.288;2022-12-10T02:06:38;9.27;;;5.17;;
10074;SDS011;5076;42.680;23.288;2022-12-10T02:09:13;9.70;;;4.63;;
10074;SDS011;5076;42.680;23.288;2022-12-10T02:11:51;13.80;;;5.03;;
10074;SDS011;5076;42.680;23.288;2022-12-10T02:14:29;10.70;;;4.60;;
10074;SDS011;5076;42.680;23.288;2022-12-10T02:17:03;9.30;;;5.00;;
10074;SDS011;5076;42.680;23.288;2022-12-10T02:19:38;10.67;;;5.87;;
10074;SDS011;5076;42.680;23.288;2022-12-10T02:22:17;9.60;;;4.70;;
10074;SDS011;5076;42.680;23.288;2022-12-10T02:24:46;10.13;;;4.33;;
10074;SDS011;5076;42.680;23.288;2022-12-10T02:27:27;10.40;;;4.77;;
10074;SDS011;5076;42.680;23.288;2022-12-10T02:30:03;9.33;;;5.03;;
10074;SDS011;5076;42.680;23.288;2022-12-10T02:32:31;11.23;;;5.20;;
10074;SDS011;5076;42.680;23.288;2022-12-10T02:35:04;10.57;;;5.03;;
10074;SDS011;5076;42.680;23.288;2022-12-10T02:37:37;10.73;;;5.07;;
10074;SDS011;5076;42.680;23.288;2022-12-10T02:40:11;7.70;;;4.53;;
10074;SDS011;5076;42.680;23.288;2022-12-10T02:42:43;7.33;;;5.23;;
10074;SDS011;5076;42.680;23.288;2022-12-10T02:45:15;9.50;;;4.93;;
10074;SDS011;5076;42.680;23.288;2022-12-10T02:47:43;10.50;;;4.77;;
10074;SDS011;5076;42.680;23.288;2022-12-10T02:50:10;10.27;;;5.23;;
10074;SDS011;5076;42.680;23.288;2022-12-10T02:52:41;9.87;;;5.90;;
10074;SDS011;5076;42.680;23.288;2022-12-10T02:55:10;10.00;;;4.80;;
10074;SDS011;5076;42.680;23.288;2022-12-10T02:57:40;11.07;;;5.10;;
10074;SDS011;5076;42.680;23.288;2022-12-10T03:00:17;8.57;;;5.60;;
10074;SDS011;5076;42.680;23.288;2022-12-10T03:02:53;7.63;;;5.43;;
10074;SDS011;5076;42.680;23.288;2022-12-10T03:05:33;7.53;;;5.03;;
10074;SDS011;5076;42.680;23.288;2022-12-10T03:08:05;10.33;;;5.90;;
10074;SDS011;5076;42.680;23.288;2022-12-10T03:10:40;9.63;;;5.90;;
10074;SDS011;5076;42.680;23.288;2022-12-10T03:13:13;8.07;;;5.27;;
10074;SDS011;5076;42.680;23.288;2022-12-10T03:15:44;8.23;;;5.27;;
10074;SDS011;5076;42.680;23.288;2022-12-10T03:18:13;9.43;;;6.03;;
10074;SDS011;5076;42.680;23.288;2022-12-10T03:20:43;9.57;;;5.40;;
10074;SDS011;5076;42.680;23.288;2022-12-10T03:23:13;7.37;;;5.10;;
10074;SDS011;5076;42.680;23.288;2022-12-10T03:25:42;10.17;;;5.33;;
10074;SDS011;5076;42.680;23.288;2022-12-10T03:28:11;8.43;;;5.80;;
10074;SDS011;5076;42.680;23.288;2022-12-10T03:30:40;10.37;;;6.50;;
10074;SDS011;5076;42.680;23.288;2022-12-10T03:33:10;9.07;;;5.00;;
10074;SDS011;5076;42.680;23.288;2022-12-10T03:35:38;8.33;;;5.47;;
10074;SDS011;5076;42.680;23.288;2022-12-10T03:38:06;7.50;;;4.83;;
10074;SDS011;5076;42.680;23.288;2022-12-10T03:40:34;9.13;;;5.23;;
10074;SDS011;5076;42.680;23.288;2022-12-10T03:43:01;7.63;;;5.20;;
10074;SDS011;5076;42.680;23.288;2022-12-10T03:45:28;13.00;;;5.00;;
10074;SDS011;5076;42.680;23.288;2022-12-10T03:47:55;4.47;;;2.50;;
10074;SDS011;5076;42.680;23.288;2022-12-10T03:50:23;6.40;;;4.37;;
10074;SDS011;5076;42.680;23.288;2022-12-10T03:52:50;6.83;;;4.53;;
10074;SDS011;5076;42.680;23.288;2022-12-10T03:55:17;8.20;;;3.83;;
10074;SDS011;5076;42.680;23.288;2022-12-10T03:57:44;8.37;;;4.60;;
10074;SDS011;5076;42.680;23.288;2022-12-10T04:00:11;7.50;;;4.40;;
10074;SDS011;5076;42.680;23.288;2022-12-10T04:02:38;7.87;;;4.60;;
10074;SDS011;5076;42.680;23.288;2022-12-10T04:05:06;8.43;;;4.27;;
10074;SDS011;5076;42.680;23.288;2022-12-10T04:07:35;8.63;;;4.53;;
10074;SDS011;5076;42.680;23.288;2022-12-10T04:10:02;8.70;;;4.80;;
10074;SDS011;5076;42.680;23.288;2022-12-10T04:12:30;9.37;;;4.60;;
10074;SDS011;5076;42.680;23.288;2022-12-10T04:14:56;6.27;;;4.60;;
10074;SDS011;5076;42.680;23.288;2022-12-10T04:17:41;8.43;;;4.40;;
10074;SDS011;5076;42.680;23.288;2022-12-10T04:20:08;9.10;;;4.80;;
10074;SDS011;5076;42.680;23.288;2022-12-10T04:22:57;9.60;;;4.63;;
10074;SDS011;5076;42.680;23.288;2022-12-10T04:25:41;9.10;;;3.90;;
10074;SDS011;5076;42.680;23.288;2022-12-10T04:28:25;8.67;;;3.67;;
10074;SDS011;5076;42.680;23.288;2022-12-10T04:30:52;9.03;;;3.90;;
10074;SDS011;5076;42.680;23.288;2022-12-10T04:33:19;7.93;;;4.50;;
10074;SDS011;5076;42.680;23.288;2022-12-10T04:35:46;6.47;;;4.60;;
10074;SDS011;5076;42.680;23.288;2022-12-10T04:38:14;6.63;;;3.43;;
10074;SDS011;5076;42.680;23.288;2022-12-10T04:40:41;6.43;;;4.00;;
10074;SDS011;5076;42.680;23.288;2022-12-10T04:43:08;12.13;;;4.30;;
10074;SDS011;5076;42.680;23.288;2022-12-10T04:45:35;7.40;;;4.20;;
10074;SDS011;5076;42.680;23.288;2022-12-10T04:48:01;9.00;;;4.00;;
10074;SDS011;5076;42.680;23.288;2022-12-10T04:50:29;7.13;;;4.07;;
10074;SDS011;5076;42.680;23.288;2022-12-10T04:52:55;8.93;;;3.90;;
10074;SDS011;5076;42.680;23.288;2022-12-10T04:55:24;8.17;;;4.20;;
10074;SDS011;5076;42.680;23.288;2022-12-10T04:57:50;7.43;;;4.30;;
10074;SDS011;5076;42.680;23.288;2022-12-10T05:00:18;10.50;;;4.80;;
10074;SDS011;5076;42.680;23.288;2022-12-10T05:02:47;9.50;;;4.30;;
10074;SDS011;5076;42.680;23.288;2022-12-10T05:05:14;7.07;;;3.90;;
10074;SDS011;5076;42.680;23.288;2022-12-10T05:07:41;6.57;;;4.17;;
10074;SDS011;5076;42.680;23.288;2022-12-10T05:10:08;6.97;;;4.43;;
10074;SDS011;5076;42.680;23.288;2022-12-10T05:12:36;8.33;;;4.43;;
10074;SDS011;5076;42.680;23.288;2022-12-10T05:15:03;8.77;;;4.30;;
10074;SDS011;5076;42.680;23.288;2022-12-10T05:17:32;7.60;;;4.23;;
10074;SDS011;5076;42.680;23.288;2022-12-10T05:19:59;9.10;;;4.40;;
10074;SDS011;5076;42.680;23.288;2022-12-10T05:22:26;8.63;;;4.43;;
10074;SDS011;5076;42.680;23.288;2022-12-10T05:25:10;11.70;;;5.40;;
10074;SDS011;5076;42.680;23.288;2022-12-10T05:27:38;7.37;;;4.63;;
10074;SDS011;5076;42.680;23.288;2022-12-10T05:30:06;12.47;;;4.77;;
10074;SDS011;5076;42.680;23.288;2022-12-10T05:32:34;7.47;;;4.40;;
10074;SDS011;5076;42.680;23.288;2022-12-10T05:35:01;5.10;;;4.20;;
10074;SDS011;5076;42.680;23.288;2022-12-10T05:37:28;7.10;;;4.53;;
10074;SDS011;5076;42.680;23.288;2022-12-10T05:39:55;6.53;;;4.50;;
10074;SDS011;5076;42.680;23.288;2022-12-10T05:42:22;7.17;;;4.73;;
10074;SDS011;5076;42.680;23.288;2022-12-10T05:44:50;10.43;;;5.40;;
10074;SDS011;5076;42.680;23.288;2022-12-10T05:47:17;11.57;;;5.60;;
10074;SDS011;5076;42.680;23.288;2022-12-10T05:49:43;7.47;;;4.90;;
10074;SDS011;5076;42.680;23.288;2022-12-10T05:52:12;9.67;;;5.40;;
10074;SDS011;5076;42.680;23.288;2022-12-10T05:54:39;8.87;;;4.57;;
10074;SDS011;5076;42.680;23.288;2022-12-10T05:57:06;8.10;;;4.60;;
10074;SDS011;5076;42.680;23.288;2022-12-10T05:59:32;7.73;;;5.20;;
10074;SDS011;5076;42.680;23.288;2022-12-10T06:02:01;9.60;;;5.00;;
10074;SDS011;5076;42.680;23.288;2022-12-10T06:04:28;8.67;;;5.60;;
10074;SDS011;5076;42.680;23.288;2022-12-10T06:06:54;6.63;;;5.30;;
10074;SDS011;5076;42.680;23.288;2022-12-10T06:09:21;11.53;;;5.43;;
10074;SDS011;5076;42.680;23.288;2022-12-10T06:11:48;10.40;;;5.57;;
10074;SDS011;5076;42.680;23.288;2022-12-10T06:14:15;7.77;;;5.70;;
10074;SDS011;5076;42.680;23.288;2022-12-10T06:16:41;7.70;;;5.57;;
10074;SDS011;5076;42.680;23.288;2022-12-10T06:19:10;10.27;;;6.10;;
10074;SDS011;5076;42.680;23.288;2022-12-10T06:21:37;12.37;;;6.50;;
10074;SDS011;5076;42.680;23.288;2022-12-10T06:24:04;11.30;;;6.23;;
10074;SDS011;5076;42.680;23.288;2022-12-10T06:26:31;10.10;;;5.50;;
10074;SDS011;5076;42.680;23.288;2022-12-10T06:28:58;16.27;;;11.30;;
10074;SDS011;5076;42.680;23.288;2022-12-10T06:31:26;13.40;;;8.87;;
10074;SDS011;5076;42.680;23.288;2022-12-10T06:33:53;7.97;;;6.20;;
10074;SDS011;5076;42.680;23.288;2022-12-10T06:36:22;8.97;;;5.87;;
10074;SDS011;5076;42.680;23.288;2022-12-10T06:38:49;12.77;;;7.30;;
10074;SDS011;5076;42.680;23.288;2022-12-10T06:41:17;10.67;;;6.47;;
10074;SDS011;5076;42.680;23.288;2022-12-10T06:43:45;10.83;;;6.13;;
10074;SDS011;5076;42.680;23.288;2022-12-10T06:46:12;11.23;;;6.63;;
10074;SDS011;5076;42.680;23.288;2022-12-10T06:48:41;10.03;;;6.20;;
10074;SDS011;5076;42.680;23.288;2022-12-10T06:51:08;13.57;;;7.20;;
10074;SDS011;5076;42.680;23.288;2022-12-10T06:53:38;9.80;;;6.20;;
10074;SDS011;5076;42.680;23.288;2022-12-10T06:56:07;13.60;;;6.43;;
10074;SDS011;5076;42.680;23.288;2022-12-10T06:58:39;8.77;;;6.37;;
10074;SDS011;5076;42.680;23.288;2022-12-10T07:01:08;8.50;;;6.33;;
10074;SDS011;5076;42.680;23.288;2022-12-10T07:03:36;10.37;;;6.47;;
10074;SDS011;5076;42.680;23.288;2022-12-10T07:06:06;10.63;;;5.90;;
10074;SDS011;5076;42.680;23.288;2022-12-10T07:08:34;10.93;;;6.13;;
10074;SDS011;5076;42.680;23.288;2022-12-10T07:11:04;12.40;;;6.77;;
10074;SDS011;5076;42.680;23.288;2022-12-10T07:13:31;13.60;;;9.07;;
10074;SDS011;5076;42.680;23.288;2022-12-10T07:15:58;9.27;;;6.77;;
10074;SDS011;5076;42.680;23.288;2022-12-10T07:18:25;8.50;;;5.80;;
10074;SDS011;5076;42.680;23.288;2022-12-10T07:20:53;9.23;;;5.83;;
10074;SDS011;5076;42.680;23.288;2022-12-10T07:23:20;9.47;;;6.20;;
10074;SDS011;5076;42.680;23.288;2022-12-10T07:25:47;10.73;;;7.07;;
10074;SDS011;5076;42.680;23.288;2022-12-10T07:28:15;10.17;;;6.70;;
10074;SDS011;5076;42.680;23.288;2022-12-10T07:30:42;13.13;;;6.53;;
10074;SDS011;5076;42.680;23.288;2022-12-10T07:33:09;11.40;;;6.27;;
10074;SDS011;5076;42.680;23.288;2022-12-10T07:35:37;9.67;;;6.90;;
10074;SDS011;5076;42.680;23.288;2022-12-10T07:38:05;9.37;;;7.03;;
10074;SDS011;5076;42.680;23.288;2022-12-10T07:40:31;10.33;;;6.63;;
10074;SDS011;5076;42.680;23.288;2022-12-10T07:42:58;10.17;;;5.93;;
10074;SDS011;5076;42.680;23.288;2022-12-10T07:45:26;8.30;;;6.00;;
10074;SDS011;5076;42.680;23.288;2022-12-10T07:47:53;15.10;;;8.03;;
10074;SDS011;5076;42.680;23.288;2022-12-10T07:50:20;9.47;;;6.43;;
10074;SDS011;5076;42.680;23.288;2022-12-10T07:52:47;9.27;;;6.47;;
10074;SDS011;5076;42.680;23.288;2022-12-10T07:55:14;13.10;;;6.83;;
10074;SDS011;5076;42.680;23.288;2022-12-10T07:57:41;10.67;;;6.70;;
10074;SDS011;5076;42.680;23.288;2022-12-10T08:00:08;8.83;;;6.57;;
10074;SDS011;5076;42.680;23.288;2022-12-10T08:02:37;10.20;;;6.07;;
10074;SDS011;5076;42.680;23.288;2022-12-10T08:05:07;7.60;;;5.80;;
10074;SDS011;5076;42.680;23.288;2022-12-10T08:07:36;9.93;;;6.53;;
10074;SDS011;5076;42.680;23.288;2022-12-10T08:10:07;9.73;;;5.93;;
10074;SDS011;5076;42.680;23.288;2022-12-10T08:12:35;10.73;;;5.97;;
10074;SDS011;5076;42.680;23.288;2022-12-10T08:15:07;9.40;;;5.83;;
10074;SDS011;5076;42.680;23.288;2022-12-10T08:17:35;11.73;;;5.60;;
10074;SDS011;5076;42.680;23.288;2022-12-10T08:20:03;8.30;;;5.70;;
10074;SDS011;5076;42.680;23.288;2022-12-10T08:22:31;10.97;;;6.83;;
10074;SDS011;5076;42.680;23.288;2022-12-10T08:24:59;15.97;;;9.60;;
10074;SDS011;5076;42.680;23.288;2022-12-10T08:27:26;12.07;;;7.97;;
10074;SDS011;5076;42.680;23.288;2022-12-10T08:29:53;12.20;;;7.20;;
10074;SDS011;5076;42.680;23.288;2022-12-10T08:32:20;10.90;;;6.83;;
10074;SDS011;5076;42.680;23.288;2022-12-10T08:34:46;11.43;;;7.23;;
10074;SDS011;5076;42.680;23.288;2022-12-10T08:37:15;10.90;;;9.10;;
10074;SDS011;5076;42.680;23.288;2022-12-10T08:39:42;11.63;;;6.80;;
10074;SDS011;5076;42.680;23.288;2022-12-10T08:42:09;12.07;;;7.40;;
10074;SDS011;5076;42.680;23.288;2022-12-10T08:44:36;10.83;;;7.50;;
10074;SDS011;5076;42.680;23.288;2022-12-10T08:47:03;11.50;;;7.03;;
10074;SDS011;5076;42.680;23.288;2022-12-10T08:49:29;9.50;;;7.53;;
10074;SDS011;5076;42.680;23.288;2022-12-10T08:51:56;13.60;;;7.30;;
10074;SDS011;5076;42.680;23.288;2022-12-10T08:54:24;11.30;;;7.10;;
10074;SDS011;5076;42.680;23.288;2022-12-10T08:56:51;12.37;;;8.30;;
10074;SDS011;5076;42.680;23.288;2022-12-10T08:59:18;14.57;;;8.57;;
10074;SDS011;5076;42.680;23.288;2022-12-10T09:01:45;12.93;;;8.00;;
10074;SDS011;5076;42.680;23.288;2022-12-10T09:04:12;19.53;;;12.27;;
10074;SDS011;5076;42.680;23.288;2022-12-10T09:06:40;15.17;;;9.50;;
10074;SDS011;5076;42.680;23.288;2022-12-10T09:09:07;13.73;;;9.20;;
10074;SDS011;5076;42.680;23.288;2022-12-10T09:11:35;12.87;;;8.50;;
10074;SDS011;5076;42.680;23.288;2022-12-10T09:14:02;12.50;;;7.93;;
10074;SDS011;5076;42.680;23.288;2022-12-10T09:16:30;12.13;;;8.23;;
10074;SDS011;5076;42.680;23.288;2022-12-10T09:18:58;11.47;;;8.07;;
10074;SDS011;5076;42.680;23.288;2022-12-10T09:21:26;9.33;;;7.57;;
10074;SDS011;5076;42.680;23.288;2022-12-10T09:23:53;9.27;;;7.53;;
10074;SDS011;5076;42.680;23.288;2022-12-10T09:26:20;14.87;;;7.83;;
10074;SDS011;5076;42.680;23.288;2022-12-10T09:28:49;11.03;;;6.83;;
10074;SDS011;5076;42.680;23.288;2022-12-10T09:31:16;10.27;;;7.23;;
10074;SDS011;5076;42.680;23.288;2022-12-10T09:33:45;12.00;;;7.50;;
10074;SDS011;5076;42.680;23.288;2022-12-10T09:36:13;12.47;;;6.53;;
10074;SDS011;5076;42.680;23.288;2022-12-10T09:38:40;10.43;;;6.73;;
10074;SDS011;5076;42.680;23.288;2022-12-10T09:41:14;8.27;;;6.10;;
10074;SDS011;5076;42.680;23.288;2022-12-10T09:43:57;8.47;;;7.20;;
10074;SDS011;5076;42.680;23.288;2022-12-10T09:46:31;14.57;;;7.97;;
10074;SDS011;5076;42.680;23.288;2022-12-10T09:49:14;10.37;;;6.43;;
10074;SDS011;5076;42.680;23.288;2022-12-10T09:51:48;11.37;;;8.10;;
10074;SDS011;5076;42.680;23.288;2022-12-10T09:54:18;8.70;;;6.67;;
10074;SDS011;5076;42.680;23.288;2022-12-10T09:56:49;12.83;;;8.23;;
10074;SDS011;5076;42.680;23.288;2022-12-10T09:59:19;10.77;;;8.20;;
10074;SDS011;5076;42.680;23.288;2022-12-10T10:01:50;9.87;;;7.23;;
10074;SDS011;5076;42.680;23.288;2022-12-10T10:04:38;12.70;;;8.00;;
10074;SDS011;5076;42.680;23.288;2022-12-10T10:07:05;18.30;;;11.97;;
10074;SDS011;5076;42.680;23.288;2022-12-10T10:09:32;15.07;;;10.27;;
10074;SDS011;5076;42.680;23.288;2022-12-10T10:12:08;11.67;;;8.30;;
10074;SDS011;5076;42.680;23.288;2022-12-10T10:14:40;10.83;;;7.93;;
10074;SDS011;5076;42.680;23.288;2022-12-10T10:17:09;17.50;;;10.33;;
10074;SDS011;5076;42.680;23.288;2022-12-10T10:19:40;8.70;;;7.03;;
10074;SDS011;5076;42.680;23.288;2022-12-10T10:22:09;10.17;;;7.50;;
10074;SDS011;5076;42.680;23.288;2022-12-10T10:24:38;11.63;;;8.03;;
10074;SDS011;5076;42.680;23.288;2022-12-10T10:27:10;9.43;;;6.20;;
10074;SDS011;5076;42.680;23.288;2022-12-10T10:29:41;7.13;;;5.33;;
10074;SDS011;5076;42.680;23.288;2022-12-10T10:32:11;8.17;;;5.53;;
10074;SDS011;5076;42.680;23.288;2022-12-10T10:34:41;6.40;;;5.70;;
10074;SDS011;5076;42.680;23.288;2022-12-10T10:37:13;10.43;;;5.63;;
10074;SDS011;5076;42.680;23.288;2022-12-10T10:39:48;10.07;;;6.00;;
10074;SDS011;5076;42.680;23.288;2022-12-10T10:42:24;10.27;;;6.30;;
10074;SDS011;5076;42.680;23.288;2022-12-10T10:44:55;12.57;;;5.53;;
10074;SDS011;5076;42.680;23.288;2022-12-10T10:47:26;7.23;;;5.53;;
10074;SDS011;5076;42.680;23.288;2022-12-10T10:49:54;7.67;;;5.57;;
10074;SDS011;5076;42.680;23.288;2022-12-10T10:52:21;7.13;;;5.43;;
10074;SDS011;5076;42.680;23.288;2022-12-10T10:54:49;8.40;;;5.60;;
10074;SDS011;5076;42.680;23.288;2022-12-10T10:57:17;9.17;;;5.50;;
10074;SDS011;5076;42.680;23.288;2022-12-10T10:59:52;9.50;;;6.10;;
10074;SDS011;5076;42.680;23.288;2022-12-10T11:02:24;7.70;;;5.67;;
10074;SDS011;5076;42.680;23.288;2022-12-10T11:05:03;7.50;;;5.73;;
10074;SDS011;5076;42.680;23.288;2022-12-10T11:07:39;8.43;;;5.23;;
10074;SDS011;5076;42.680;23.288;2022-12-10T11:10:15;8.63;;;5.43;;
10074;SDS011;5076;42.680;23.288;2022-12-10T11:12:53;6.87;;;5.03;;
10074;SDS011;5076;42.680;23.288;2022-12-10T11:15:33;7.83;;;4.93;;
10074;SDS011;5076;42.680;23.288;2022-12-10T11:18:19;7.17;;;5.37;;
10074;SDS011;5076;42.680;23.288;2022-12-10T11:20:56;12.07;;;5.07;;
10074;SDS011;5076;42.680;23.288;2022-12-10T11:23:26;6.10;;;4.10;;
10074;SDS011;5076;42.680;23.288;2022-12-10T11:25:55;5.40;;;3.70;;
10074;SDS011;5076;42.680;23.288;2022-12-10T11:28:32;8.20;;;4.43;;
10074;SDS011;5076;42.680;23.288;2022-12-10T11:31:17;10.37;;;4.60;;
10074;SDS011;5076;42.680;23.288;2022-12-10T11:33:57;4.27;;;3.40;;
10074;SDS011;5076;42.680;23.288;2022-12-10T11:36:35;10.17;;;4.60;;
10074;SDS011;5076;42.680;23.288;2022-12-10T11:39:11;9.63;;;4.80;;
10074;SDS011;5076;42.680;23.288;2022-12-10T11:41:53;5.80;;;4.73;;
10074;SDS011;5076;42.680;23.288;2022-12-10T11:44:29;6.83;;;4.43;;
10074;SDS011;5076;42.680;23.288;2022-12-10T11:47:11;7.80;;;5.47;;
10074;SDS011;5076;42.680;23.288;2022-12-10T11:49:55;9.23;;;4.17;;
10074;SDS011;5076;42.680;23.288;2022-12-10T11:52:35;5.27;;;3.50;;
10074;SDS011;5076;42.680;23.288;2022-12-10T11:55:12;5.67;;;3.53;;
10074;SDS011;5076;42.680;23.288;2022-12-10T11:57:49;5.37;;;3.77;;
10074;SDS011;5076;42.680;23.288;2022-12-10T12:00:23;5.90;;;3.90;;
10074;SDS011;5076;42.680;23.288;2022-12-10T12:06:03;7.73;;;4.13;;
10074;SDS011;5076;42.680;23.288;2022-12-10T12:08:44;5.10;;;4.27;;
10074;SDS011;5076;42.680;23.288;2022-12-10T12:11:22;8.80;;;4.63;;
10074;SDS011;5076;42.680;23.288;2022-12-10T12:14:00;8.53;;;5.00;;
10074;SDS011;5076;42.680;23.288;2022-12-10T12:16:34;8.87;;;4.87;;
10074;SDS011;5076;42.680;23.288;2022-12-10T12:19:09;8.03;;;5.60;;
10074;SDS011;5076;42.680;23.288;2022-12-10T12:21:40;6.53;;;5.00;;
10074;SDS011;5076;42.680;23.288;2022-12-10T12:24:12;7.50;;;5.80;;
10074;SDS011;5076;42.680;23.288;2022-12-10T12:26:45;10.57;;;6.73;;
10074;SDS011;5076;42.680;23.288;2022-12-10T12:29:20;12.30;;;6.07;;
10074;SDS011;5076;42.680;23.288;2022-12-10T12:31:53;8.63;;;5.47;;
10074;SDS011;5076;42.680;23.288;2022-12-10T12:34:26;7.80;;;5.47;;
10074;SDS011;5076;42.680;23.288;2022-12-10T12:36:58;6.90;;;5.07;;
10074;SDS011;5076;42.680;23.288;2022-12-10T12:39:27;9.00;;;5.10;;
10074;SDS011;5076;42.680;23.288;2022-12-10T12:42:06;6.47;;;4.70;;
10074;SDS011;5076;42.680;23.288;2022-12-10T12:44:45;9.63;;;5.97;;
10074;SDS011;5076;42.680;23.288;2022-12-10T12:47:28;14.00;;;8.60;;
10074;SDS011;5076;42.680;23.288;2022-12-10T12:50:02;12.17;;;7.27;;
10074;SDS011;5076;42.680;23.288;2022-12-10T12:52:33;10.00;;;6.43;;
10074;SDS011;5076;42.680;23.288;2022-12-10T12:55:09;10.10;;;6.27;;
10074;SDS011;5076;42.680;23.288;2022-12-10T12:57:43;12.70;;;5.83;;
10074;SDS011;5076;42.680;23.288;2022-12-10T13:00:15;8.57;;;5.57;;
10074;SDS011;5076;42.680;23.288;2022-12-10T13:02:49;9.27;;;5.70;;
10074;SDS011;5076;42.680;23.288;2022-12-10T13:05:24;8.90;;;6.27;;
10074;SDS011;5076;42.680;23.288;2022-12-10T13:10:52;7.23;;;4.97;;
10074;SDS011;5076;42.680;23.288;2022-12-10T13:13:24;6.93;;;5.37;;
10074;SDS011;5076;42.680;23.288;2022-12-10T13:15:54;8.00;;;5.40;;
10074;SDS011;5076;42.680;23.288;2022-12-10T13:18:35;10.30;;;6.80;;
10074;SDS011;5076;42.680;23.288;2022-12-10T13:24:05;11.27;;;6.50;;
10074;SDS011;5076;42.680;23.288;2022-12-10T13:26:34;9.97;;;7.03;;
10074;SDS011;5076;42.680;23.288;2022-12-10T13:29:12;7.23;;;6.17;;
10074;SDS011;5076;42.680;23.288;2022-12-10T13:31:54;11.47;;;6.67;;
10074;SDS011;5076;42.680;23.288;2022-12-10T13:34:29;8.33;;;5.97;;
10074;SDS011;5076;42.680;23.288;2022-12-10T13:37:13;12.00;;;6.97;;
10074;SDS011;5076;42.680;23.288;2022-12-10T13:39:59;12.63;;;6.87;;
10074;SDS011;5076;42.680;23.288;2022-12-10T13:43:25;11.13;;;7.90;;
10074;SDS011;5076;42.680;23.288;2022-12-10T13:46:23;21.10;;;10.70;;
10074;SDS011;5076;42.680;23.288;2022-12-10T13:49:46;12.37;;;9.13;;
10074;SDS011;5076;42.680;23.288;2022-12-10T13:55:53;13.17;;;8.77;;
10074;SDS011;5076;42.680;23.288;2022-12-10T13:58:49;13.07;;;8.67;;
10074;SDS011;5076;42.680;23.288;2022-12-10T14:01:36;16.70;;;10.13;;
10074;SDS011;5076;42.680;23.288;2022-12-10T14:04:31;12.57;;;8.20;;
10074;SDS011;5076;42.680;23.288;2022-12-10T14:07:13;12.17;;;8.00;;
10074;SDS011;5076;42.680;23.288;2022-12-10T14:09:45;15.10;;;9.13;;
10074;SDS011;5076;42.680;23.288;2022-12-10T14:12:17;16.13;;;11.00;;
10074;SDS011;5076;42.680;23.288;2022-12-10T14:14:51;12.50;;;8.83;;
10074;SDS011;5076;42.680;23.288;2022-12-10T14:17:23;16.67;;;8.27;;
10074;SDS011;5076;42.680;23.288;2022-12-10T14:19:57;15.43;;;8.00;;
10074;SDS011;5076;42.680;23.288;2022-12-10T14:22:31;11.57;;;7.90;;
10074;SDS011;5076;42.680;23.288;2022-12-10T14:25:01;40.43;;;25.60;;
10074;SDS011;5076;42.680;23.288;2022-12-10T14:27:34;14.77;;;8.77;;
10074;SDS011;5076;42.680;23.288;2022-12-10T14:30:03;17.93;;;10.33;;
10074;SDS011;5076;42.680;23.288;2022-12-10T14:32:33;12.53;;;7.33;;
10074;SDS011;5076;42.680;23.288;2022-12-10T14:35:03;9.63;;;6.53;;
10074;SDS011;5076;42.680;23.288;2022-12-10T14:37:33;10.10;;;6.47;;
10074;SDS011;5076;42.680;23.288;2022-12-10T14:40:03;8.33;;;6.63;;
10074;SDS011;5076;42.680;23.288;2022-12-10T14:42:33;22.27;;;11.00;;
10074;SDS011;5076;42.680;23.288;2022-12-10T14:45:02;15.03;;;9.47;;
10074;SDS011;5076;42.680;23.288;2022-12-10T14:47:32;10.10;;;6.50;;
10074;SDS011;5076;42.680;23.288;2022-12-10T14:50:02;10.30;;;6.07;;
10074;SDS011;5076;42.680;23.288;2022-12-10T14:52:31;10.30;;;6.20;;
10074;SDS011;5076;42.680;23.288;2022-12-10T14:55:00;13.23;;;5.80;;
10074;SDS011;5076;42.680;23.288;2022-12-10T14:57:30;11.67;;;7.20;;
10074;SDS011;5076;42.680;23.288;2022-12-10T15:00:04;11.40;;;7.23;;
10074;SDS011;5076;42.680;23.288;2022-12-10T15:02:34;14.53;;;7.13;;
10074;SDS011;5076;42.680;23.288;2022-12-10T15:05:03;20.13;;;12.93;;
10074;SDS011;5076;42.680;23.288;2022-12-10T15:07:38;17.50;;;10.47;;
10074;SDS011;5076;42.680;23.288;2022-12-10T15:10:06;16.63;;;11.53;;
10074;SDS011;5076;42.680;23.288;2022-12-10T15:12:41;19.20;;;12.53;;
10074;SDS011;5076;42.680;23.288;2022-12-10T15:15:13;26.57;;;19.13;;